KCMY

Sparta / Fort Mc Coy Airport

Sparta, Wisconsin, USA
METAR KCMY 161235Z AUTO 00000KT 10SM CLR M07/M07 A3007 RMK AO2 T10711074
Observed Flight Rules
Dec-16 @ 12:35 UTC (24 minutes ago) Visual Flight Rules
Visibility Clouds
10 miles
  • Clear skies
Temperatures Readings
Current -7°C / 19°F
Dewpoint -7°C / 19°F
Humidity 100%
Altimeter 30.07" Hg
Pressure 1018 hPa
Elevation 256
METAR KCMY 161235Z AUTO 00000KT 10SM CLR M07/M07 A3007 RMK AO2 T10711074
Observed Flight Rules
Dec-16 @ 12:35 UTC
(24 minutes ago)
VFR
Clouds
  • Clear skies
Temperature Dewpoint
-7°C / 19°F -7°C / 19°F
Humidity Altimeter Pressure
100% 30.07" Hg 1018 hPa